createdAt,value
2022-10-29T00:02:27.014Z,13.00
2022-10-29T00:04:54.026Z,13.00
2022-10-29T00:07:21.100Z,12.90
2022-10-29T00:09:48.103Z,13.00
2022-10-29T00:12:15.095Z,12.90
2022-10-29T00:14:42.116Z,12.90
2022-10-29T00:17:09.097Z,12.90
2022-10-29T00:19:36.152Z,13.00
2022-10-29T00:22:03.149Z,13.00
2022-10-29T00:24:30.126Z,13.00
2022-10-29T00:26:57.128Z,12.90
2022-10-29T00:29:24.186Z,12.90
2022-10-29T00:31:51.671Z,12.90
2022-10-29T00:34:18.742Z,12.90
2022-10-29T00:36:45.793Z,12.90
2022-10-29T00:39:17.047Z,12.90
2022-10-29T00:41:44.393Z,12.90
2022-10-29T00:44:22.952Z,12.90
2022-10-29T00:47:14.251Z,12.90
2022-10-29T00:49:43.304Z,12.90
2022-10-29T00:52:11.063Z,12.90
2022-10-29T00:54:42.083Z,12.90
2022-10-29T00:57:17.972Z,12.90
2022-10-29T00:59:47.067Z,12.80
2022-10-29T01:02:14.680Z,12.80
2022-10-29T01:04:42.789Z,12.80
2022-10-29T01:07:10.996Z,12.80
2022-10-29T01:09:38.541Z,12.80
2022-10-29T01:12:05.490Z,12.80
2022-10-29T01:14:49.591Z,12.80
2022-10-29T01:17:19.266Z,12.80
2022-10-29T01:20:07.878Z,12.80
2022-10-29T01:23:12.451Z,12.70
2022-10-29T01:26:11.124Z,12.70
2022-10-29T01:29:15.204Z,12.70
2022-10-29T01:32:01.168Z,12.70
2022-10-29T01:34:55.803Z,12.60
2022-10-29T01:37:50.171Z,12.50
2022-10-29T01:40:58.172Z,12.50
2022-10-29T01:43:38.648Z,12.40
2022-10-29T01:46:23.803Z,12.40
2022-10-29T01:48:57.018Z,12.40
2022-10-29T01:51:29.615Z,12.40
2022-10-29T01:53:59.324Z,12.30
2022-10-29T01:56:26.439Z,12.40
2022-10-29T01:58:56.599Z,12.30
2022-10-29T02:01:38.697Z,12.30
2022-10-29T02:04:25.265Z,12.30
2022-10-29T02:06:58.079Z,12.30
2022-10-29T02:09:45.260Z,12.30
2022-10-29T02:12:23.272Z,12.20
2022-10-29T02:14:55.823Z,12.20
2022-10-29T02:17:23.507Z,12.20
2022-10-29T02:19:50.574Z,12.20
2022-10-29T02:22:17.573Z,12.10
2022-10-29T02:24:44.530Z,12.10
2022-10-29T02:27:11.573Z,12.10
2022-10-29T02:29:38.577Z,12.00
2022-10-29T02:32:05.964Z,12.00
2022-10-29T02:34:32.989Z,11.90
2022-10-29T02:36:59.997Z,11.90
2022-10-29T02:39:26.950Z,11.80
2022-10-29T02:41:54.680Z,11.80
2022-10-29T02:44:21.682Z,11.70
2022-10-29T02:46:48.707Z,11.80
2022-10-29T02:49:15.728Z,11.70
2022-10-29T02:51:42.722Z,11.60
2022-10-29T02:54:09.751Z,11.70
2022-10-29T02:56:36.758Z,11.60
2022-10-29T02:59:06.411Z,11.60
2022-10-29T03:01:36.283Z,11.60
2022-10-29T03:04:03.358Z,11.60
2022-10-29T03:06:30.339Z,11.60
2022-10-29T03:08:57.484Z,11.60
2022-10-29T03:11:24.513Z,11.50
2022-10-29T03:13:51.506Z,11.50
2022-10-29T03:16:18.447Z,11.50
2022-10-29T03:18:45.437Z,11.50
2022-10-29T03:21:12.416Z,11.40
2022-10-29T03:23:39.494Z,11.40
2022-10-29T03:26:06.560Z,11.40
2022-10-29T03:28:33.576Z,11.40
2022-10-29T03:31:00.620Z,11.40
2022-10-29T03:33:27.671Z,11.40
2022-10-29T03:35:59.181Z,11.40
2022-10-29T03:38:26.759Z,11.40
2022-10-29T03:40:53.940Z,11.50
2022-10-29T03:43:21.005Z,11.50
2022-10-29T03:45:55.306Z,11.50
2022-10-29T03:48:23.588Z,11.50
2022-10-29T03:51:01.563Z,11.50
2022-10-29T03:53:29.802Z,11.50
2022-10-29T03:55:57.889Z,11.50
2022-10-29T03:58:25.998Z,11.40
2022-10-29T04:00:56.487Z,11.40
2022-10-29T04:03:24.038Z,11.30
2022-10-29T04:05:51.156Z,11.40
2022-10-29T04:08:18.598Z,11.40
2022-10-29T04:10:49.988Z,11.40
2022-10-29T04:13:18.304Z,11.40
2022-10-29T04:15:45.749Z,11.50
2022-10-29T04:18:13.134Z,11.50
2022-10-29T04:21:26.657Z,11.40
2022-10-29T04:29:03.842Z,11.40
2022-10-29T04:31:30.831Z,11.40
2022-10-29T04:33:57.862Z,11.40
2022-10-29T04:36:24.939Z,11.40
2022-10-29T04:38:51.921Z,11.40
2022-10-29T04:41:19.021Z,11.30
2022-10-29T04:43:46.200Z,11.30
2022-10-29T04:46:13.381Z,11.20
2022-10-29T04:48:40.504Z,11.20
2022-10-29T04:51:07.568Z,11.20
2022-10-29T04:53:34.607Z,11.10
2022-10-29T04:56:03.592Z,11.10
2022-10-29T04:58:30.568Z,11.10
2022-10-29T05:01:05.372Z,11.00
2022-10-29T05:03:41.083Z,11.00
2022-10-29T05:06:08.317Z,10.90
2022-10-29T05:08:35.359Z,10.90
2022-10-29T05:11:03.914Z,10.90
2022-10-29T05:13:31.090Z,11.00
2022-10-29T05:15:58.388Z,11.00
2022-10-29T05:18:25.832Z,11.00
2022-10-29T05:20:54.468Z,11.00
2022-10-29T05:23:21.492Z,11.00
2022-10-29T05:25:49.408Z,11.00
2022-10-29T05:28:21.668Z,11.00
2022-10-29T05:30:50.886Z,11.10
2022-10-29T05:33:20.457Z,11.00
2022-10-29T05:35:48.039Z,10.90
2022-10-29T05:38:15.791Z,11.00
2022-10-29T05:40:45.319Z,11.00
2022-10-29T05:43:17.126Z,11.00
2022-10-29T05:45:44.486Z,11.10
2022-10-29T05:50:46.189Z,11.20
2022-10-29T05:53:14.760Z,11.20
2022-10-29T05:55:42.442Z,11.20
2022-10-29T05:58:14.186Z,11.20
2022-10-29T06:00:44.011Z,11.20
2022-10-29T06:03:20.521Z,11.20
2022-10-29T06:05:48.813Z,11.20
2022-10-29T06:08:16.075Z,11.20
2022-10-29T06:10:43.382Z,11.20
2022-10-29T06:13:19.049Z,11.20
2022-10-29T06:15:47.149Z,11.20
2022-10-29T06:18:14.631Z,11.20
2022-10-29T06:20:43.727Z,11.30
2022-10-29T06:23:11.732Z,11.30
2022-10-29T06:25:38.847Z,11.40
2022-10-29T06:28:08.292Z,11.40
2022-10-29T06:30:36.595Z,11.40
2022-10-29T06:33:04.869Z,11.50
2022-10-29T06:35:32.067Z,11.50
2022-10-29T06:37:59.745Z,11.60
2022-10-29T06:40:27.208Z,11.60
2022-10-29T06:43:05.802Z,11.60
2022-10-29T06:45:33.378Z,11.50
2022-10-29T06:48:00.843Z,11.50
2022-10-29T06:50:28.322Z,11.60
2022-10-29T06:53:00.546Z,11.60
2022-10-29T06:55:28.653Z,11.70
2022-10-29T06:58:04.083Z,11.80
2022-10-29T07:00:32.144Z,11.80
2022-10-29T07:03:00.320Z,11.90
2022-10-29T07:05:27.944Z,12.20
2022-10-29T07:07:57.061Z,12.40
2022-10-29T07:10:24.822Z,12.10
2022-10-29T07:12:52.085Z,12.20
2022-10-29T07:15:19.478Z,12.40
2022-10-29T07:18:07.054Z,12.50
2022-10-29T07:20:39.941Z,12.60
2022-10-29T07:23:07.120Z,12.70
2022-10-29T07:25:36.159Z,12.80
2022-10-29T07:28:04.652Z,12.80
2022-10-29T07:30:31.816Z,12.90
2022-10-29T07:32:58.790Z,12.90
2022-10-29T07:35:25.736Z,12.90
2022-10-29T07:37:53.001Z,13.10
2022-10-29T07:40:20.207Z,13.20
2022-10-29T07:42:52.854Z,13.10
2022-10-29T07:45:20.273Z,13.10
2022-10-29T07:47:47.487Z,13.20
2022-10-29T07:50:14.998Z,13.20
2022-10-29T07:52:42.313Z,13.20
2022-10-29T07:55:09.657Z,13.20
2022-10-29T07:57:36.732Z,13.30
2022-10-29T08:00:04.217Z,13.30
2022-10-29T08:02:31.528Z,13.30
2022-10-29T08:04:58.495Z,13.40
2022-10-29T08:07:25.634Z,13.60
2022-10-29T08:09:52.643Z,13.70
2022-10-29T08:12:19.634Z,13.70
2022-10-29T08:14:46.687Z,13.80
2022-10-29T08:17:13.635Z,13.90
2022-10-29T08:19:40.624Z,13.90
2022-10-29T08:22:10.507Z,14.00
2022-10-29T08:24:42.131Z,14.10
2022-10-29T08:27:11.043Z,14.20
2022-10-29T08:29:39.772Z,14.20
2022-10-29T08:32:26.209Z,14.30
2022-10-29T08:34:56.386Z,14.50
2022-10-29T08:37:23.715Z,14.50
2022-10-29T08:39:52.957Z,14.50
2022-10-29T08:42:41.148Z,14.40
2022-10-29T08:45:35.491Z,14.30
2022-10-29T08:48:22.583Z,14.30
2022-10-29T08:51:20.501Z,14.20
2022-10-29T08:54:25.191Z,14.30
2022-10-29T08:56:58.469Z,14.30
2022-10-29T08:59:30.960Z,14.70
2022-10-29T09:02:00.508Z,14.60
2022-10-29T09:04:35.121Z,14.50
2022-10-29T09:07:19.583Z,14.50
2022-10-29T09:10:19.349Z,14.60
2022-10-29T09:12:48.788Z,14.70
2022-10-29T09:15:43.913Z,14.90
2022-10-29T09:18:33.124Z,15.10
2022-10-29T09:21:32.574Z,15.20
2022-10-29T09:24:09.684Z,15.40
2022-10-29T09:27:11.586Z,15.50
2022-10-29T09:29:59.815Z,15.50
2022-10-29T09:32:35.580Z,15.60
2022-10-29T09:35:15.125Z,15.60
2022-10-29T09:37:53.558Z,15.60
2022-10-29T09:40:21.354Z,15.60
2022-10-29T09:42:50.696Z,15.60
2022-10-29T09:45:28.913Z,15.90
2022-10-29T09:48:15.043Z,16.00
2022-10-29T09:50:50.177Z,16.10
2022-10-29T09:53:17.172Z,15.90
2022-10-29T09:55:46.601Z,16.00
2022-10-29T09:58:21.084Z,16.20
2022-10-29T10:00:48.108Z,16.20
2022-10-29T10:03:42.023Z,16.30
2022-10-29T10:06:10.938Z,16.30
2022-10-29T10:09:01.867Z,16.40
2022-10-29T10:11:42.263Z,16.50
2022-10-29T10:14:21.884Z,16.70
2022-10-29T10:16:59.311Z,16.80
2022-10-29T10:19:29.667Z,16.80
2022-10-29T10:21:58.928Z,16.90
2022-10-29T10:24:34.382Z,17.00
2022-10-29T10:27:08.053Z,17.00
2022-10-29T10:29:35.100Z,17.10
2022-10-29T10:32:04.873Z,17.30
2022-10-29T10:34:34.712Z,17.40
2022-10-29T10:37:11.871Z,17.50
2022-10-29T10:39:43.076Z,17.60
2022-10-29T10:42:31.150Z,17.70
2022-10-29T10:45:14.614Z,17.70
2022-10-29T10:47:46.261Z,17.80
2022-10-29T10:50:22.920Z,17.80
2022-10-29T10:52:51.785Z,17.90
2022-10-29T10:55:25.753Z,17.90
2022-10-29T10:58:05.411Z,17.90
2022-10-29T11:00:37.886Z,18.10
2022-10-29T11:03:20.890Z,18.10
2022-10-29T11:06:03.389Z,18.30
2022-10-29T11:08:55.260Z,18.20
2022-10-29T11:11:28.712Z,18.30
2022-10-29T11:14:02.170Z,18.40
2022-10-29T11:16:50.745Z,18.60
2022-10-29T11:19:35.876Z,18.50
2022-10-29T11:22:30.998Z,18.60
2022-10-29T11:25:19.394Z,18.70
2022-10-29T11:27:55.659Z,18.70
2022-10-29T11:30:23.109Z,18.80
2022-10-29T11:33:08.603Z,18.90
2022-10-29T11:36:17.370Z,18.90
2022-10-29T11:38:51.287Z,18.90
2022-10-29T11:41:24.131Z,19.00
2022-10-29T11:43:51.181Z,19.00
2022-10-29T11:46:44.248Z,19.00
2022-10-29T11:49:20.023Z,19.00
2022-10-29T11:52:02.100Z,19.10
2022-10-29T11:54:44.682Z,19.20
2022-10-29T11:57:24.971Z,19.30
2022-10-29T11:59:57.733Z,19.40
2022-10-29T12:03:01.950Z,19.40
2022-10-29T12:05:31.826Z,19.30
2022-10-29T12:08:58.255Z,19.30
2022-10-29T12:11:50.985Z,19.30
2022-10-29T12:14:26.638Z,19.30
2022-10-29T12:17:25.524Z,19.30
2022-10-29T12:20:12.407Z,19.30
2022-10-29T12:23:15.084Z,19.20
2022-10-29T12:25:51.323Z,19.10
2022-10-29T12:28:53.092Z,19.00
2022-10-29T12:31:20.041Z,19.00
2022-10-29T12:34:05.386Z,19.10
2022-10-29T12:36:40.926Z,19.10
2022-10-29T12:39:19.226Z,19.00
2022-10-29T12:41:50.353Z,19.00
2022-10-29T12:44:45.272Z,19.00
2022-10-29T12:47:21.080Z,19.10
2022-10-29T12:50:14.256Z,19.00
2022-10-29T12:52:50.106Z,19.00
2022-10-29T12:55:17.928Z,19.10
2022-10-29T12:57:45.508Z,19.20
2022-10-29T13:00:24.924Z,19.10
2022-10-29T13:02:52.990Z,19.20
2022-10-29T13:05:32.192Z,19.30
2022-10-29T13:08:02.295Z,19.40
2022-10-29T13:10:35.410Z,19.20
2022-10-29T13:13:20.065Z,19.30
2022-10-29T13:15:59.880Z,19.20
2022-10-29T13:19:05.087Z,19.30
2022-10-29T13:21:55.473Z,19.30
2022-10-29T13:24:23.017Z,19.30
2022-10-29T13:27:24.884Z,19.50
2022-10-29T13:30:17.889Z,19.40
2022-10-29T13:32:44.922Z,19.40
2022-10-29T13:35:17.592Z,19.30
2022-10-29T13:37:52.138Z,19.20
2022-10-29T13:40:31.365Z,19.10
2022-10-29T13:43:01.169Z,19.00
2022-10-29T13:45:29.272Z,18.90
2022-10-29T13:48:02.096Z,19.00
2022-10-29T13:50:29.307Z,19.00
2022-10-29T13:53:00.918Z,19.00
2022-10-29T13:55:32.413Z,18.90
2022-10-29T13:58:08.229Z,19.00
2022-10-29T14:00:37.041Z,18.90
2022-10-29T14:03:29.575Z,18.90
2022-10-29T14:06:09.275Z,18.80
2022-10-29T14:08:49.165Z,18.80
2022-10-29T14:11:26.760Z,18.80
2022-10-29T14:14:01.189Z,18.90
2022-10-29T14:16:32.910Z,18.80
2022-10-29T14:19:14.748Z,18.70
2022-10-29T14:21:41.869Z,18.80
2022-10-29T14:24:11.427Z,18.80
2022-10-29T14:26:41.043Z,18.70
2022-10-29T14:29:25.007Z,18.70
2022-10-29T14:32:15.852Z,18.70
2022-10-29T14:34:45.425Z,18.60
2022-10-29T14:37:28.644Z,18.60
2022-10-29T14:39:59.876Z,18.60
2022-10-29T14:42:40.881Z,18.50
2022-10-29T14:45:29.470Z,18.50
2022-10-29T14:47:59.166Z,18.50
2022-10-29T14:50:28.582Z,18.40
2022-10-29T14:53:03.864Z,18.40
2022-10-29T14:55:37.136Z,18.30
2022-10-29T14:58:20.947Z,18.20
2022-10-29T15:01:02.011Z,18.10
2022-10-29T15:03:33.089Z,17.90
2022-10-29T15:06:25.424Z,17.80
2022-10-29T15:09:01.339Z,17.70
2022-10-29T15:11:38.839Z,17.80
2022-10-29T15:16:59.403Z,17.40
2022-10-29T15:19:26.714Z,17.30
2022-10-29T15:21:53.744Z,17.20
2022-10-29T15:24:23.808Z,17.00
2022-10-29T15:27:02.357Z,16.90
2022-10-29T15:29:36.218Z,16.80
2022-10-29T15:32:05.611Z,16.70
2022-10-29T15:34:37.180Z,16.50
2022-10-29T15:37:19.805Z,16.50
2022-10-29T15:39:56.802Z,16.30
2022-10-29T15:42:30.172Z,16.30
2022-10-29T15:45:19.001Z,16.10
2022-10-29T15:48:09.032Z,16.00
2022-10-29T15:50:42.449Z,15.90
2022-10-29T15:53:15.356Z,15.70
2022-10-29T15:55:43.379Z,15.70
2022-10-29T15:58:20.744Z,15.70
2022-10-29T16:00:48.132Z,15.70
2022-10-29T16:03:21.398Z,15.70
2022-10-29T16:06:01.211Z,15.70
2022-10-29T16:08:28.236Z,15.70
2022-10-29T16:10:56.443Z,15.70
2022-10-29T16:13:26.032Z,15.60
2022-10-29T16:15:53.051Z,15.50
2022-10-29T16:18:20.273Z,15.50
2022-10-29T16:20:48.225Z,15.40
2022-10-29T16:23:15.265Z,15.30
2022-10-29T16:25:42.604Z,15.20
2022-10-29T16:28:10.192Z,15.10
2022-10-29T16:33:11.724Z,15.00
2022-10-29T16:35:38.790Z,14.90
2022-10-29T16:38:06.223Z,14.80
2022-10-29T16:40:33.556Z,14.80
2022-10-29T16:43:00.932Z,14.80
2022-10-29T16:45:33.177Z,14.80
2022-10-29T16:48:00.567Z,14.70
2022-10-29T16:50:30.676Z,14.60
2022-10-29T16:52:59.174Z,14.60
2022-10-29T16:55:27.195Z,14.50
2022-10-29T16:57:54.398Z,14.40
2022-10-29T17:00:22.441Z,14.40
2022-10-29T17:02:49.754Z,14.30
2022-10-29T17:05:17.200Z,14.20
2022-10-29T17:07:44.470Z,14.20
2022-10-29T17:10:11.581Z,14.00
2022-10-29T17:12:38.561Z,13.90
2022-10-29T17:15:06.074Z,13.90
2022-10-29T17:17:33.066Z,13.90
2022-10-29T17:20:00.130Z,13.80
2022-10-29T17:22:27.230Z,13.80
2022-10-29T17:24:54.255Z,13.80
2022-10-29T17:27:21.300Z,13.80
2022-10-29T17:29:48.384Z,13.80
2022-10-29T17:32:15.783Z,13.70
2022-10-29T17:34:42.816Z,13.70
2022-10-29T17:37:09.890Z,13.70
2022-10-29T17:39:36.975Z,13.70
2022-10-29T17:42:04.625Z,13.70
2022-10-29T17:44:34.010Z,13.60
2022-10-29T17:47:01.337Z,13.60
2022-10-29T17:49:28.537Z,13.50
2022-10-29T17:51:55.509Z,13.50
2022-10-29T17:54:22.635Z,13.40
2022-10-29T17:56:50.868Z,13.40
2022-10-29T17:59:17.867Z,13.40
2022-10-29T18:01:45.506Z,13.30
2022-10-29T18:04:12.635Z,13.30
2022-10-29T18:06:39.719Z,13.20
2022-10-29T18:09:06.958Z,13.10
2022-10-29T18:11:33.997Z,13.00
2022-10-29T18:14:00.978Z,13.00
2022-10-29T18:16:29.630Z,13.00
2022-10-29T18:19:03.233Z,13.00
2022-10-29T18:21:31.452Z,12.90
2022-10-29T18:23:58.829Z,12.80
2022-10-29T18:26:32.797Z,12.80
2022-10-29T18:29:08.739Z,12.80
2022-10-29T18:31:38.175Z,12.80
2022-10-29T18:34:07.816Z,12.70
2022-10-29T18:36:39.048Z,12.70
2022-10-29T18:39:06.721Z,12.70
2022-10-29T18:41:34.902Z,12.70
2022-10-29T18:44:02.373Z,12.80
2022-10-29T18:46:29.388Z,12.80
2022-10-29T18:48:57.208Z,12.90
2022-10-29T18:51:26.870Z,12.90
2022-10-29T18:53:55.758Z,12.80
2022-10-29T18:56:23.587Z,12.70
2022-10-29T18:58:51.001Z,12.70
2022-10-29T19:01:20.877Z,12.60
2022-10-29T19:03:53.184Z,12.60
2022-10-29T19:06:21.639Z,12.60
2022-10-29T19:08:48.945Z,12.50
2022-10-29T19:11:18.827Z,12.50
2022-10-29T19:13:53.973Z,12.50
2022-10-29T19:16:21.516Z,12.40
2022-10-29T19:18:49.053Z,12.50
2022-10-29T19:21:21.207Z,12.50
2022-10-29T19:23:48.390Z,12.50
2022-10-29T19:26:18.386Z,12.50
2022-10-29T19:28:46.953Z,12.40
2022-10-29T19:31:19.701Z,12.30
2022-10-29T19:33:51.695Z,12.40
2022-10-29T19:36:19.423Z,12.40
2022-10-29T19:38:47.299Z,12.40
2022-10-29T19:41:15.595Z,12.30
2022-10-29T19:43:42.944Z,12.30
2022-10-29T19:46:12.691Z,12.30
2022-10-29T19:48:40.326Z,12.20
2022-10-29T19:51:08.429Z,12.10
2022-10-29T19:53:38.257Z,12.10
2022-10-29T19:56:06.658Z,12.10
2022-10-29T19:58:33.665Z,12.10
2022-10-29T20:01:10.877Z,12.00
2022-10-29T20:03:38.020Z,12.00
2022-10-29T20:06:06.651Z,12.00
2022-10-29T20:08:33.747Z,12.00
2022-10-29T20:11:01.070Z,12.00
2022-10-29T20:13:28.508Z,12.00
2022-10-29T20:15:55.810Z,12.00
2022-10-29T20:18:23.060Z,12.00
2022-10-29T20:20:57.773Z,11.80
2022-10-29T20:23:28.108Z,11.80
2022-10-29T20:25:55.136Z,11.80
2022-10-29T20:28:22.260Z,11.80
2022-10-29T20:30:49.676Z,11.70
2022-10-29T20:33:17.091Z,11.70
2022-10-29T20:35:44.232Z,11.60
2022-10-29T20:38:12.273Z,11.60
2022-10-29T20:40:40.048Z,11.60
2022-10-29T20:43:07.079Z,11.60
2022-10-29T20:45:34.091Z,11.60
2022-10-29T20:48:03.224Z,11.60
2022-10-29T20:50:30.278Z,11.60
2022-10-29T20:52:57.975Z,11.60
2022-10-29T20:55:25.059Z,11.50
2022-10-29T20:57:52.040Z,11.50
2022-10-29T21:00:19.154Z,11.40
2022-10-29T21:02:46.274Z,11.50
2022-10-29T21:05:23.884Z,11.60
2022-10-29T21:07:59.571Z,11.60
2022-10-29T21:10:27.011Z,11.50
2022-10-29T21:12:54.179Z,11.50
2022-10-29T21:15:21.374Z,11.50
2022-10-29T21:17:58.860Z,11.40
2022-10-29T21:20:26.078Z,11.50
2022-10-29T21:23:23.966Z,11.40
2022-10-29T21:25:54.276Z,11.30
2022-10-29T21:28:21.281Z,11.30
2022-10-29T21:30:48.265Z,11.30
2022-10-29T21:33:15.275Z,11.20
2022-10-29T21:35:42.254Z,11.20
2022-10-29T21:38:09.256Z,11.10
2022-10-29T21:40:36.255Z,11.00
2022-10-29T21:43:03.331Z,11.00
2022-10-29T21:45:30.297Z,11.00
2022-10-29T21:47:57.304Z,11.00
2022-10-29T21:50:24.340Z,11.00
2022-10-29T21:52:51.349Z,11.00
2022-10-29T21:55:18.450Z,11.00
2022-10-29T21:57:45.450Z,11.00
2022-10-29T22:00:14.741Z,11.00
2022-10-29T22:02:41.768Z,10.90
2022-10-29T22:05:08.910Z,11.00
2022-10-29T22:07:36.522Z,10.90
2022-10-29T22:10:04.329Z,11.00
2022-10-29T22:12:31.541Z,11.10
2022-10-29T22:14:58.501Z,11.00
2022-10-29T22:17:28.920Z,11.00
2022-10-29T22:19:56.342Z,11.00
2022-10-29T22:22:24.026Z,10.90
2022-10-29T22:24:50.976Z,10.90
2022-10-29T22:27:18.043Z,10.90
2022-10-29T22:29:44.963Z,10.90
2022-10-29T22:32:11.960Z,10.90
2022-10-29T22:34:38.919Z,10.90
2022-10-29T22:37:05.894Z,10.90
2022-10-29T22:39:32.986Z,10.80
2022-10-29T22:41:59.997Z,10.80
2022-10-29T22:44:27.007Z,10.80
2022-10-29T22:46:53.975Z,10.70
2022-10-29T22:49:20.953Z,10.80
2022-10-29T22:51:47.941Z,10.80
2022-10-29T22:54:15.012Z,10.70
2022-10-29T22:56:42.075Z,10.80
2022-10-29T22:59:09.166Z,10.70
2022-10-29T23:01:40.385Z,10.80
2022-10-29T23:04:11.141Z,10.80
2022-10-29T23:06:38.176Z,10.80
2022-10-29T23:09:05.269Z,10.70
2022-10-29T23:11:35.079Z,10.70
2022-10-29T23:14:03.020Z,10.80
2022-10-29T23:16:32.106Z,10.70
2022-10-29T23:19:02.139Z,10.70
2022-10-29T23:21:30.083Z,10.80
2022-10-29T23:23:57.979Z,10.80
2022-10-29T23:26:25.883Z,10.70
2022-10-29T23:28:53.277Z,10.70
2022-10-29T23:31:25.208Z,10.80
2022-10-29T23:33:54.333Z,10.70
2022-10-29T23:36:23.073Z,10.70
2022-10-29T23:38:58.161Z,10.60
2022-10-29T23:41:26.191Z,10.70
2022-10-29T23:43:53.198Z,10.70
2022-10-29T23:46:20.480Z,10.70
2022-10-29T23:48:47.637Z,10.70
2022-10-29T23:51:15.123Z,10.80
2022-10-29T23:53:42.170Z,10.80
2022-10-29T23:56:09.151Z,10.70
2022-10-29T23:58:36.164Z,10.60
